createdAt,value
2022-07-30T04:24:20.266Z,94989.00
2022-07-30T04:29:24.791Z,95007.00
2022-07-30T04:34:28.796Z,94989.00
2022-07-30T04:39:31.762Z,94981.00
2022-07-30T04:44:34.410Z,94992.00
2022-07-30T04:49:55.272Z,95008.00
2022-07-30T04:55:04.617Z,94976.00
2022-07-30T05:00:08.291Z,95007.00
2022-07-30T05:05:15.940Z,95000.00
2022-07-30T05:10:19.844Z,95000.00
2022-07-30T05:15:21.991Z,95012.00
2022-07-30T05:20:31.338Z,94988.00
2022-07-30T05:25:55.174Z,94985.00
2022-07-30T05:31:11.201Z,94992.00
2022-07-30T05:36:15.160Z,95000.00
2022-07-30T05:41:19.130Z,94992.00
2022-07-30T05:46:51.886Z,94999.00
2022-07-30T05:51:54.429Z,94998.00
2022-07-30T05:56:57.202Z,95011.00
2022-07-30T06:02:07.841Z,95031.00
2022-07-30T06:07:29.770Z,95015.00
2022-07-30T06:12:33.407Z,95041.00
2022-07-30T06:17:52.003Z,95015.00
2022-07-30T06:23:13.598Z,95037.00
2022-07-30T06:28:38.523Z,95035.00
2022-07-30T06:33:49.239Z,95039.00
2022-07-30T06:38:51.265Z,95045.00
2022-07-30T06:43:59.760Z,95032.00
2022-07-30T06:49:40.437Z,95042.00
2022-07-30T06:54:45.014Z,95031.00
2022-07-30T06:59:57.604Z,95033.00
2022-07-30T07:05:22.105Z,95054.00
2022-07-30T07:10:25.761Z,95054.00
2022-07-30T07:15:40.263Z,95031.00
2022-07-30T07:20:46.732Z,95023.00
2022-07-30T07:25:48.840Z,95025.00
2022-07-30T07:30:51.835Z,95033.00
2022-07-30T07:35:55.172Z,95031.00
2022-07-30T07:41:02.448Z,95039.00
2022-07-30T07:46:05.359Z,95035.00
2022-07-30T07:51:09.633Z,95029.00
2022-07-30T07:56:11.978Z,95028.00
2022-07-30T08:01:16.379Z,95000.00
2022-07-30T08:06:44.511Z,95023.00
2022-07-30T08:12:15.300Z,94998.00
2022-07-30T08:17:44.826Z,95011.00
2022-07-30T08:22:51.529Z,95008.00
2022-07-30T08:27:54.126Z,95030.00
2022-07-30T08:32:58.006Z,95006.00
2022-07-30T08:38:00.381Z,95022.00
2022-07-30T08:43:06.597Z,95000.00
2022-07-30T08:48:14.923Z,95015.00
2022-07-30T08:53:21.454Z,95011.00
2022-07-30T08:58:37.083Z,95033.00
2022-07-30T09:03:44.455Z,94993.00
2022-07-30T09:08:46.794Z,95020.00
2022-07-30T09:13:50.823Z,95002.00
2022-07-30T09:18:54.718Z,95040.00
2022-07-30T09:23:59.053Z,95016.00
2022-07-30T09:29:24.461Z,95033.00
2022-07-30T09:34:48.052Z,95040.00
2022-07-30T09:40:18.642Z,95008.00
2022-07-30T09:45:57.844Z,94999.00
2022-07-30T09:51:00.604Z,95014.00
2022-07-30T09:56:29.989Z,95024.00
2022-07-30T10:02:00.936Z,95008.00
2022-07-30T10:07:24.813Z,95017.00
2022-07-30T10:12:34.520Z,94985.00
2022-07-30T10:17:38.722Z,94942.00
2022-07-30T10:23:09.301Z,94979.00
2022-07-30T10:28:13.097Z,94997.00
2022-07-30T10:33:35.145Z,95012.00
2022-07-30T10:38:41.443Z,95020.00
2022-07-30T10:44:17.221Z,95038.00
2022-07-30T10:49:19.627Z,95049.00
2022-07-30T10:54:33.858Z,95042.00
2022-07-30T10:59:55.586Z,95062.00
2022-07-30T11:05:18.113Z,95039.00
2022-07-30T11:10:41.205Z,95028.00
2022-07-30T11:16:00.103Z,95056.00
2022-07-30T11:21:22.694Z,95016.00
2022-07-30T11:26:41.713Z,95027.00
2022-07-30T11:31:56.957Z,95012.00
2022-07-30T11:37:21.802Z,95032.00
2022-07-30T11:42:37.621Z,95027.00
2022-07-30T11:47:39.914Z,95034.00
2022-07-30T11:52:42.030Z,95045.00
2022-07-30T11:57:45.611Z,95046.00
2022-07-30T12:07:59.197Z,95037.00
2022-07-30T12:13:16.286Z,95032.00
2022-07-30T12:18:28.307Z,95066.00
2022-07-30T12:23:33.435Z,95059.00
2022-07-30T12:28:36.326Z,95053.00
2022-07-30T12:33:42.145Z,95060.00
2022-07-30T12:38:48.899Z,95025.00
2022-07-30T12:43:53.010Z,95071.00
2022-07-30T12:49:02.831Z,95064.00
2022-07-30T12:54:21.143Z,95066.00
2022-07-30T12:59:23.530Z,95055.00
2022-07-30T13:04:26.828Z,95062.00
2022-07-30T13:09:28.794Z,95040.00
2022-07-30T13:14:31.557Z,95056.00
2022-07-30T13:19:33.531Z,95045.00
2022-07-30T13:24:35.501Z,95063.00
2022-07-30T13:29:37.455Z,95064.00
2022-07-30T13:34:41.578Z,95077.00
2022-07-30T13:39:43.547Z,95086.00
2022-07-30T13:44:45.539Z,95102.00
2022-07-30T13:49:50.919Z,95083.00
2022-07-30T13:54:53.767Z,95073.00
2022-07-30T13:59:55.704Z,95073.00
2022-07-30T14:04:57.851Z,95080.00
2022-07-30T14:09:59.827Z,95072.00
2022-07-30T14:15:02.288Z,95069.00
2022-07-30T14:20:05.453Z,95056.00
2022-07-30T14:25:08.532Z,95066.00
2022-07-30T14:30:11.250Z,95068.00
2022-07-30T14:35:13.265Z,95067.00
2022-07-30T14:40:15.312Z,95049.00
2022-07-30T14:45:17.360Z,95073.00
2022-07-30T14:50:19.582Z,95087.00
2022-07-30T14:55:21.662Z,95079.00
2022-07-30T15:00:24.288Z,95094.00
2022-07-30T15:05:26.746Z,95099.00
2022-07-30T15:10:28.697Z,95085.00
2022-07-30T15:15:35.177Z,95091.00
2022-07-30T15:20:40.576Z,95108.00
2022-07-30T15:25:42.805Z,95108.00
2022-07-30T15:30:44.919Z,95113.00
2022-07-30T15:35:46.921Z,95117.00
2022-07-30T15:40:48.973Z,95112.00
2022-07-30T15:45:55.740Z,95133.00
2022-07-30T15:51:03.848Z,95138.00
2022-07-30T15:56:06.291Z,95143.00
2022-07-30T16:01:08.707Z,95129.00
2022-07-30T16:06:11.068Z,95127.00
2022-07-30T16:11:12.993Z,95137.00
2022-07-30T16:16:15.411Z,95136.00
2022-07-30T16:21:18.016Z,95147.00
2022-07-30T16:26:20.897Z,95165.00
2022-07-30T16:31:23.434Z,95150.00
2022-07-30T16:36:25.418Z,95143.00
2022-07-30T16:41:27.796Z,95145.00
2022-07-30T16:46:29.842Z,95136.00
2022-07-30T16:51:31.809Z,95141.00
2022-07-30T16:56:33.925Z,95145.00
2022-07-30T17:01:36.076Z,95133.00
2022-07-30T17:06:39.952Z,95153.00
2022-07-30T17:11:47.638Z,95160.00
2022-07-30T17:16:54.354Z,95173.00
2022-07-30T17:21:56.288Z,95162.00
2022-07-30T17:26:58.238Z,95169.00
2022-07-30T17:32:00.608Z,95150.00
2022-07-30T17:37:02.875Z,95175.00
2022-07-30T17:42:05.656Z,95181.00
2022-07-30T17:47:14.360Z,95149.00
2022-07-30T17:52:16.820Z,95159.00
2022-07-30T17:57:18.802Z,95161.00
2022-07-30T18:02:24.049Z,95172.00
2022-07-30T18:07:29.705Z,95160.00
2022-07-30T18:12:31.682Z,95171.00
2022-07-30T18:17:34.397Z,95163.00
2022-07-30T18:22:36.297Z,95177.00
2022-07-30T18:27:38.401Z,95166.00
2022-07-30T18:32:40.435Z,95165.00
2022-07-30T18:37:44.026Z,95182.00
2022-07-30T18:42:46.651Z,95167.00
2022-07-30T18:47:49.120Z,95182.00
2022-07-30T18:52:51.481Z,95178.00
2022-07-30T18:57:53.445Z,95182.00
2022-07-30T19:02:55.480Z,95190.00
2022-07-30T19:07:58.677Z,95194.00
2022-07-30T19:13:01.458Z,95191.00
2022-07-30T19:18:03.586Z,95195.00
2022-07-30T19:23:12.293Z,95207.00
2022-07-30T19:28:17.773Z,95210.00
2022-07-30T19:33:19.893Z,95214.00
2022-07-30T19:38:24.078Z,95206.00
2022-07-30T19:43:26.485Z,95227.00
2022-07-30T19:48:31.453Z,95219.00
2022-07-30T19:53:34.658Z,95225.00
2022-07-30T19:58:36.756Z,95220.00
2022-07-30T20:03:39.644Z,95218.00
2022-07-30T20:08:44.928Z,95217.00
2022-07-30T20:13:49.180Z,95225.00
2022-07-30T20:18:51.542Z,95231.00
2022-07-30T20:23:54.545Z,95215.00
